createdAt,value
2019-03-21T00:00:29.871Z,93.70
2019-03-21T00:02:59.374Z,93.70
2019-03-21T00:05:31.506Z,93.70
2019-03-21T00:08:00.961Z,93.80
2019-03-21T00:10:57.019Z,93.90
2019-03-21T00:13:27.450Z,94.30
2019-03-21T00:15:59.965Z,94.40
2019-03-21T00:18:29.343Z,94.20
2019-03-21T00:20:58.892Z,93.90
2019-03-21T00:23:28.272Z,93.80
2019-03-21T00:25:57.896Z,93.90
2019-03-21T00:28:27.474Z,94.20
2019-03-21T00:30:56.819Z,94.70
2019-03-21T00:33:26.163Z,94.80
2019-03-21T00:35:55.527Z,95.50
2019-03-21T00:38:24.871Z,95.60
2019-03-21T00:40:54.306Z,95.70
2019-03-21T00:43:23.700Z,95.70
2019-03-21T00:45:53.136Z,95.80
2019-03-21T00:48:22.482Z,96.10
2019-03-21T00:50:51.898Z,96.40
2019-03-21T00:53:21.326Z,96.20
2019-03-21T00:55:51.055Z,96.40
2019-03-21T00:58:20.479Z,96.20
2019-03-21T01:00:52.452Z,95.90
2019-03-21T01:03:21.903Z,95.50
2019-03-21T01:05:51.351Z,95.50
2019-03-21T01:08:20.736Z,95.60
2019-03-21T01:10:51.297Z,95.30
2019-03-21T01:13:20.886Z,95.10
2019-03-21T01:15:50.295Z,95.40
2019-03-21T01:18:19.962Z,94.90
2019-03-21T01:20:49.366Z,94.50
2019-03-21T01:23:18.987Z,94.40
2019-03-21T01:25:50.286Z,94.50
2019-03-21T01:28:19.715Z,94.50
2019-03-21T01:30:49.504Z,94.80
2019-03-21T01:33:18.931Z,95.00
2019-03-21T01:35:48.294Z,95.00
2019-03-21T01:38:17.758Z,95.20
2019-03-21T01:40:47.954Z,95.50
2019-03-21T01:43:17.348Z,95.70
2019-03-21T01:45:46.724Z,95.70
2019-03-21T01:48:16.150Z,96.00
2019-03-21T01:50:45.583Z,96.10
2019-03-21T01:53:14.955Z,96.40
2019-03-21T01:55:44.455Z,96.50
2019-03-21T01:58:14.170Z,96.70
2019-03-21T02:00:43.531Z,96.70
2019-03-21T02:03:13.373Z,96.80
2019-03-21T02:05:42.921Z,97.10
2019-03-21T02:08:12.296Z,97.40
2019-03-21T02:10:41.698Z,97.40
2019-03-21T02:13:11.201Z,97.80
2019-03-21T02:15:40.888Z,97.80
2019-03-21T02:18:10.715Z,97.40
2019-03-21T02:20:40.150Z,97.10
2019-03-21T02:23:09.565Z,96.90
2019-03-21T02:25:39.004Z,96.80
2019-03-21T02:28:08.476Z,97.00
2019-03-21T02:30:38.072Z,97.10
2019-03-21T02:33:23.126Z,96.80
2019-03-21T02:35:52.953Z,96.70
2019-03-21T02:38:22.315Z,96.70
2019-03-21T02:40:52.080Z,96.80
2019-03-21T02:43:21.533Z,97.00
2019-03-21T02:45:50.926Z,97.10
2019-03-21T02:48:20.308Z,97.30
2019-03-21T02:50:49.638Z,97.60
2019-03-21T02:53:19.102Z,97.50
2019-03-21T02:55:48.551Z,97.70
2019-03-21T02:58:18.324Z,97.70
2019-03-21T03:00:47.809Z,97.70
2019-03-21T03:03:17.350Z,98.00
2019-03-21T03:05:46.787Z,98.00
2019-03-21T03:08:16.520Z,98.20
2019-03-21T03:10:48.343Z,98.40
2019-03-21T03:13:17.677Z,98.50
2019-03-21T03:15:47.132Z,98.50
2019-03-21T03:18:16.601Z,98.60
2019-03-21T03:20:46.487Z,98.70
2019-03-21T03:23:15.807Z,98.70
2019-03-21T03:25:45.173Z,98.70
2019-03-21T03:28:25.060Z,98.70
2019-03-21T03:30:55.435Z,98.60
2019-03-21T03:33:24.962Z,98.50
2019-03-21T03:35:54.336Z,98.50
2019-03-21T03:38:23.759Z,98.90
2019-03-21T03:40:55.756Z,98.60
2019-03-21T03:43:25.469Z,98.50
2019-03-21T03:45:54.822Z,98.30
2019-03-21T03:48:24.199Z,98.30
2019-03-21T03:50:53.529Z,98.20
2019-03-21T03:53:22.897Z,98.70
2019-03-21T03:55:52.294Z,98.10
2019-03-21T03:58:22.247Z,98.00
2019-03-21T04:00:51.674Z,97.90
2019-03-21T04:03:21.179Z,97.90
2019-03-21T04:05:50.564Z,98.00
2019-03-21T04:08:20.068Z,98.20
2019-03-21T04:10:53.475Z,98.20
2019-03-21T04:13:22.895Z,98.30
2019-03-21T04:15:53.920Z,98.30
2019-03-21T04:18:23.708Z,98.40
2019-03-21T04:20:53.396Z,98.50
2019-03-21T04:23:22.830Z,98.60
2019-03-21T04:25:58.041Z,99.00
2019-03-21T04:28:27.523Z,98.50
2019-03-21T04:30:56.921Z,98.50
2019-03-21T04:33:26.358Z,98.50
2019-03-21T04:35:56.103Z,98.50
2019-03-21T04:38:25.503Z,98.70
2019-03-21T04:40:54.972Z,98.50
2019-03-21T04:43:24.813Z,98.40
2019-03-21T04:46:02.814Z,98.30
2019-03-21T04:48:25.208Z,98.30
2019-03-21T04:50:54.574Z,98.40
2019-03-21T04:53:23.883Z,98.50
2019-03-21T04:55:53.569Z,98.40
2019-03-21T04:58:22.997Z,98.40
2019-03-21T05:00:52.516Z,98.60
2019-03-21T05:03:21.918Z,98.50
2019-03-21T05:05:51.459Z,98.30
2019-03-21T05:08:20.843Z,98.30
2019-03-21T05:10:50.135Z,98.40
2019-03-21T05:13:19.512Z,98.40
2019-03-21T05:15:48.911Z,98.50
2019-03-21T05:18:22.089Z,98.40
2019-03-21T05:20:51.546Z,98.20
2019-03-21T05:23:21.774Z,98.20
2019-03-21T05:25:51.169Z,98.10
2019-03-21T05:28:20.733Z,98.20
2019-03-21T05:30:56.183Z,98.20
2019-03-21T05:33:25.661Z,98.10
2019-03-21T05:35:55.307Z,98.00
2019-03-21T05:38:25.715Z,98.10
2019-03-21T05:40:55.182Z,97.90
2019-03-21T05:43:28.432Z,97.90
2019-03-21T05:45:58.408Z,97.90
2019-03-21T05:48:28.121Z,97.90
2019-03-21T05:50:57.500Z,97.90
2019-03-21T05:53:26.986Z,97.80
2019-03-21T05:55:56.441Z,97.70
2019-03-21T05:58:25.885Z,97.70
2019-03-21T06:00:55.454Z,97.70
2019-03-21T06:03:29.042Z,97.60
2019-03-21T06:06:24.327Z,97.50
2019-03-21T06:08:53.735Z,97.60
2019-03-21T06:11:23.462Z,97.50
2019-03-21T06:13:53.078Z,97.20
2019-03-21T06:16:22.435Z,96.90
2019-03-21T06:19:15.986Z,96.40
2019-03-21T06:22:18.555Z,96.20
2019-03-21T06:24:55.260Z,95.90
2019-03-21T06:27:32.392Z,95.30
2019-03-21T06:30:01.915Z,95.20
2019-03-21T06:32:31.437Z,95.00
2019-03-21T06:35:00.982Z,94.70
2019-03-21T06:37:30.399Z,93.90
2019-03-21T06:39:59.754Z,92.90
2019-03-21T06:42:29.179Z,92.40
2019-03-21T06:44:58.599Z,92.10
2019-03-21T06:47:28.059Z,91.40
2019-03-21T06:49:57.467Z,91.30
2019-03-21T06:52:26.934Z,91.40
2019-03-21T06:54:56.306Z,90.80
2019-03-21T06:57:25.667Z,90.30
2019-03-21T06:59:55.055Z,89.20
2019-03-21T07:02:24.483Z,88.30
2019-03-21T07:04:53.854Z,87.70
2019-03-21T07:07:23.366Z,87.50
2019-03-21T07:09:52.768Z,86.30
2019-03-21T07:12:22.140Z,86.80
2019-03-21T07:14:51.491Z,85.40
2019-03-21T07:17:23.018Z,84.80
2019-03-21T07:19:52.378Z,84.20
2019-03-21T07:22:21.847Z,84.30
2019-03-21T07:24:51.199Z,83.80
2019-03-21T07:27:20.711Z,81.20
2019-03-21T07:29:50.411Z,80.00
2019-03-21T07:32:20.040Z,79.70
2019-03-21T07:34:49.412Z,78.60
2019-03-21T07:37:18.978Z,76.30
2019-03-21T07:39:48.495Z,76.30
2019-03-21T07:42:18.020Z,76.00
2019-03-21T07:44:47.915Z,72.50
2019-03-21T07:47:17.369Z,69.80
2019-03-21T07:49:46.795Z,70.50
2019-03-21T07:52:16.723Z,70.50
2019-03-21T07:54:46.095Z,67.60
2019-03-21T07:57:15.455Z,68.00
2019-03-21T07:59:44.778Z,67.30
2019-03-21T08:02:14.088Z,63.90
2019-03-21T08:04:43.430Z,63.50
2019-03-21T08:07:12.931Z,59.60
2019-03-21T08:09:42.677Z,58.00
2019-03-21T08:12:12.587Z,57.80
2019-03-21T08:14:41.926Z,57.90
2019-03-21T08:17:11.370Z,57.60
2019-03-21T08:19:40.784Z,56.40
2019-03-21T08:22:10.449Z,55.80
2019-03-21T08:24:39.890Z,54.00
2019-03-21T08:27:09.365Z,53.30
2019-03-21T08:29:41.240Z,52.70
2019-03-21T08:32:10.926Z,52.80
2019-03-21T08:34:40.405Z,53.30
2019-03-21T08:37:09.786Z,51.90
2019-03-21T08:39:39.165Z,50.60
2019-03-21T08:42:08.628Z,50.90
2019-03-21T08:44:38.001Z,48.00
2019-03-21T08:47:07.723Z,46.10
2019-03-21T08:49:37.101Z,46.90
2019-03-21T08:52:06.598Z,45.00
2019-03-21T08:54:36.086Z,43.50
2019-03-21T08:57:05.545Z,44.20
2019-03-21T08:59:35.094Z,45.20
2019-03-21T09:02:04.868Z,44.40
2019-03-21T09:04:34.283Z,44.40
2019-03-21T09:07:03.706Z,43.80
2019-03-21T09:09:33.527Z,42.30
2019-03-21T09:12:02.892Z,42.80
2019-03-21T09:14:33.154Z,42.00
2019-03-21T09:17:02.623Z,41.90
2019-03-21T09:19:31.963Z,42.00
2019-03-21T09:22:01.478Z,41.20
2019-03-21T09:24:31.120Z,40.30
2019-03-21T09:27:00.536Z,39.20
2019-03-21T09:29:29.996Z,38.50
2019-03-21T09:31:59.482Z,38.80
2019-03-21T09:34:28.855Z,37.30
2019-03-21T09:36:58.336Z,37.20
2019-03-21T09:39:27.728Z,36.00
2019-03-21T09:41:57.111Z,36.00
2019-03-21T09:44:27.826Z,36.50
2019-03-21T09:46:57.290Z,34.40
2019-03-21T09:49:26.715Z,35.30
2019-03-21T09:51:56.195Z,35.40
2019-03-21T09:54:25.936Z,34.90
2019-03-21T09:56:55.479Z,32.40
2019-03-21T09:59:24.848Z,32.20
2019-03-21T10:01:54.564Z,32.90
2019-03-21T10:04:24.026Z,32.30
2019-03-21T10:06:53.499Z,34.30
2019-03-21T10:09:23.037Z,31.10
2019-03-21T10:11:58.189Z,31.80
2019-03-21T10:14:27.647Z,31.40
2019-03-21T10:16:57.107Z,33.10
2019-03-21T10:19:26.649Z,30.50
2019-03-21T10:21:56.187Z,30.90
2019-03-21T10:24:25.691Z,29.60
2019-03-21T10:26:55.032Z,30.40
2019-03-21T10:29:24.772Z,30.70
2019-03-21T10:31:54.163Z,28.50
2019-03-21T10:34:23.518Z,28.20
2019-03-21T10:36:52.965Z,29.10
2019-03-21T10:39:22.693Z,28.00
2019-03-21T10:41:52.349Z,28.20
2019-03-21T10:44:21.735Z,27.70
2019-03-21T10:46:51.144Z,28.90
2019-03-21T10:49:21.816Z,27.70
2019-03-21T10:51:55.304Z,29.00
2019-03-21T10:54:23.659Z,28.30
2019-03-21T10:56:53.704Z,28.80
2019-03-21T10:59:23.154Z,27.80
2019-03-21T11:01:52.548Z,27.90
2019-03-21T11:04:22.011Z,28.70
2019-03-21T11:06:59.762Z,27.90
2019-03-21T11:09:29.613Z,26.20
2019-03-21T11:11:59.560Z,26.10
2019-03-21T11:14:29.131Z,26.20
2019-03-21T11:16:58.761Z,26.70
2019-03-21T11:19:28.327Z,29.10
2019-03-21T11:22:05.753Z,28.20
2019-03-21T11:24:28.847Z,26.10
2019-03-21T11:26:58.376Z,24.50
2019-03-21T11:29:27.809Z,25.40
2019-03-21T11:31:57.179Z,24.60
2019-03-21T11:34:26.643Z,24.50
2019-03-21T11:36:56.375Z,23.90
2019-03-21T11:39:25.762Z,24.90
2019-03-21T11:41:55.194Z,24.40
2019-03-21T11:44:24.693Z,23.70
2019-03-21T11:46:54.047Z,24.80
2019-03-21T11:49:23.505Z,22.30
2019-03-21T11:51:52.961Z,22.10
2019-03-21T11:54:22.336Z,23.90
2019-03-21T11:56:51.847Z,25.80
2019-03-21T11:59:21.315Z,25.30
2019-03-21T12:01:50.638Z,24.20
2019-03-21T12:04:22.484Z,23.60
2019-03-21T12:06:52.218Z,25.00
2019-03-21T12:09:21.679Z,24.70
2019-03-21T12:11:51.086Z,25.80
2019-03-21T12:14:20.868Z,25.50
2019-03-21T12:16:51.536Z,24.60
2019-03-21T12:19:20.948Z,23.50
2019-03-21T12:22:08.348Z,23.70
2019-03-21T12:24:37.704Z,24.20
2019-03-21T12:27:07.126Z,23.10
2019-03-21T12:29:36.535Z,24.20
2019-03-21T12:32:05.990Z,24.50
2019-03-21T12:34:35.730Z,23.00
2019-03-21T12:37:05.132Z,23.00
2019-03-21T12:39:34.698Z,21.60
2019-03-21T12:42:04.881Z,22.20
2019-03-21T12:44:34.302Z,24.20
2019-03-21T12:47:03.807Z,23.00
2019-03-21T12:49:33.192Z,22.50
2019-03-21T12:52:02.583Z,23.90
2019-03-21T12:54:31.971Z,23.50
2019-03-21T12:57:01.396Z,24.10
2019-03-21T12:59:30.909Z,22.20
2019-03-21T13:02:00.278Z,20.80
2019-03-21T13:04:29.910Z,23.70
2019-03-21T13:06:59.450Z,22.70
2019-03-21T13:09:28.863Z,21.90
2019-03-21T13:11:58.298Z,21.00
2019-03-21T13:14:27.695Z,20.70
2019-03-21T13:16:57.356Z,20.10
2019-03-21T13:19:26.763Z,20.40
2019-03-21T13:21:56.223Z,19.20
2019-03-21T13:24:25.839Z,19.50
2019-03-21T13:26:55.303Z,20.40
2019-03-21T13:29:25.276Z,19.60
2019-03-21T13:31:54.669Z,19.30
2019-03-21T13:34:24.061Z,21.10
2019-03-21T13:36:53.702Z,20.20
2019-03-21T13:39:23.123Z,20.90
2019-03-21T13:41:52.605Z,19.80
2019-03-21T13:44:22.074Z,19.50
2019-03-21T13:46:51.434Z,19.70
2019-03-21T13:49:22.003Z,20.80
2019-03-21T13:51:51.384Z,21.10
2019-03-21T13:54:20.753Z,21.00
2019-03-21T13:56:50.473Z,21.80
2019-03-21T13:59:20.079Z,20.40
2019-03-21T14:01:49.748Z,18.80
2019-03-21T14:04:19.124Z,18.50
2019-03-21T14:06:48.757Z,18.80
2019-03-21T14:09:20.319Z,20.20
2019-03-21T14:11:49.875Z,18.20
2019-03-21T14:14:19.380Z,18.60
2019-03-21T14:16:50.839Z,20.20
2019-03-21T14:19:20.126Z,19.40
2019-03-21T14:21:49.762Z,18.30
2019-03-21T14:24:19.294Z,19.80
2019-03-21T14:26:48.647Z,19.70
2019-03-21T14:29:18.537Z,19.20
2019-03-21T14:31:48.053Z,19.40
2019-03-21T14:34:17.374Z,19.70
2019-03-21T14:36:49.449Z,19.20
2019-03-21T14:39:18.959Z,18.80
2019-03-21T14:41:48.373Z,19.40
2019-03-21T14:44:18.331Z,18.90
2019-03-21T14:46:47.794Z,19.10
2019-03-21T14:49:17.320Z,19.30
2019-03-21T14:51:46.786Z,21.40
2019-03-21T14:54:16.179Z,19.60
2019-03-21T14:56:45.615Z,20.10
2019-03-21T14:59:15.342Z,20.70
2019-03-21T15:01:47.751Z,19.30
2019-03-21T15:04:17.126Z,19.40
2019-03-21T15:06:46.521Z,21.50
2019-03-21T15:09:15.946Z,20.30
2019-03-21T15:11:45.342Z,19.30
2019-03-21T15:14:14.832Z,18.60
2019-03-21T15:16:44.146Z,19.40
2019-03-21T15:19:13.534Z,18.70
2019-03-21T15:21:42.870Z,18.10
2019-03-21T15:24:12.295Z,18.20
2019-03-21T15:26:41.625Z,18.20
2019-03-21T15:29:11.383Z,19.20
2019-03-21T15:31:40.982Z,18.30
2019-03-21T15:34:10.412Z,19.20
2019-03-21T15:36:39.846Z,18.80
2019-03-21T15:39:09.598Z,17.90
2019-03-21T15:41:39.339Z,17.70
2019-03-21T15:44:08.706Z,17.60
2019-03-21T15:46:38.034Z,17.20
2019-03-21T15:49:07.371Z,18.00
2019-03-21T15:51:36.802Z,18.00
2019-03-21T15:54:06.198Z,18.50
2019-03-21T15:56:35.530Z,18.70
2019-03-21T15:59:05.355Z,19.40
2019-03-21T16:01:34.654Z,18.90
2019-03-21T16:04:04.231Z,19.60
2019-03-21T16:06:33.589Z,19.80
2019-03-21T16:09:03.408Z,20.40
2019-03-21T16:11:32.730Z,20.60
2019-03-21T16:14:02.106Z,21.60
2019-03-21T16:16:31.746Z,22.00
2019-03-21T16:19:01.075Z,21.90
2019-03-21T16:21:30.703Z,21.10
2019-03-21T16:24:05.507Z,21.90
2019-03-21T16:26:31.527Z,22.50
2019-03-21T16:29:00.899Z,23.40
2019-03-21T16:31:30.268Z,24.10
2019-03-21T16:33:59.632Z,25.40
2019-03-21T16:36:29.007Z,26.60
2019-03-21T16:38:58.409Z,26.40
2019-03-21T16:41:27.710Z,26.00
2019-03-21T16:43:57.054Z,27.40
2019-03-21T16:46:26.382Z,27.70
2019-03-21T16:48:55.783Z,28.20
2019-03-21T16:51:25.140Z,28.40
2019-03-21T16:53:54.437Z,29.10
2019-03-21T16:56:23.814Z,30.00
2019-03-21T16:58:53.158Z,30.00
2019-03-21T17:01:22.510Z,30.60
2019-03-21T17:03:51.851Z,31.00
2019-03-21T17:06:21.218Z,31.60
2019-03-21T17:08:50.530Z,32.30
2019-03-21T17:11:20.160Z,33.80
2019-03-21T17:13:51.049Z,33.70
2019-03-21T17:16:20.438Z,34.70
2019-03-21T17:18:49.795Z,35.30
2019-03-21T17:21:19.110Z,36.70
2019-03-21T17:23:48.500Z,37.70
2019-03-21T17:26:17.813Z,37.70
2019-03-21T17:28:47.155Z,38.70
2019-03-21T17:31:16.562Z,38.60
2019-03-21T17:33:45.873Z,39.30
2019-03-21T17:36:15.538Z,39.80
2019-03-21T17:38:44.851Z,40.50
2019-03-21T17:41:14.176Z,43.50
2019-03-21T17:43:43.538Z,44.20
2019-03-21T17:46:12.911Z,44.50
2019-03-21T17:48:42.231Z,45.70
2019-03-21T17:51:11.674Z,45.60
2019-03-21T17:53:41.078Z,45.80
2019-03-21T17:56:10.428Z,47.30
2019-03-21T17:58:39.786Z,47.80
2019-03-21T18:01:09.439Z,49.30
2019-03-21T18:03:38.894Z,49.10
2019-03-21T18:06:08.246Z,49.30
2019-03-21T18:08:37.546Z,50.90
2019-03-21T18:11:06.870Z,51.10
2019-03-21T18:13:36.378Z,51.20
2019-03-21T18:16:05.753Z,52.60
2019-03-21T18:18:35.082Z,52.00
2019-03-21T18:21:04.566Z,53.20
2019-03-21T18:23:34.060Z,52.00
2019-03-21T18:26:03.449Z,53.30
2019-03-21T18:28:32.879Z,54.90
2019-03-21T18:31:02.266Z,54.20
2019-03-21T18:33:31.842Z,55.80
2019-03-21T18:36:01.215Z,55.60
2019-03-21T18:38:30.555Z,56.50
2019-03-21T18:40:59.903Z,56.30
2019-03-21T18:43:29.333Z,61.00
2019-03-21T18:45:58.699Z,59.00
2019-03-21T18:48:28.235Z,58.30
2019-03-21T18:50:57.907Z,57.90
2019-03-21T18:53:27.547Z,58.40
2019-03-21T18:55:57.168Z,59.20
2019-03-21T18:58:26.858Z,59.00
2019-03-21T19:00:56.285Z,59.90
2019-03-21T19:03:25.654Z,59.80
2019-03-21T19:05:55.481Z,60.10
2019-03-21T19:08:26.555Z,60.00
2019-03-21T19:10:56.891Z,61.40
2019-03-21T19:13:28.086Z,62.90
2019-03-21T19:15:57.598Z,64.20
2019-03-21T19:18:26.895Z,64.80
2019-03-21T19:20:56.406Z,64.90
2019-03-21T19:23:25.788Z,64.50
2019-03-21T19:25:55.115Z,64.90
2019-03-21T19:28:24.554Z,65.70
2019-03-21T19:30:54.350Z,65.60
2019-03-21T19:33:23.658Z,66.90
2019-03-21T19:35:52.999Z,67.80
2019-03-21T19:38:23.857Z,68.20
2019-03-21T19:40:53.412Z,69.00
2019-03-21T19:43:22.911Z,70.00
2019-03-21T19:45:52.272Z,70.20
2019-03-21T19:48:21.691Z,70.70
2019-03-21T19:50:51.321Z,70.70
2019-03-21T19:53:20.635Z,71.50
2019-03-21T19:55:50.146Z,71.60
2019-03-21T19:58:19.548Z,71.00
2019-03-21T20:00:48.953Z,71.70
2019-03-21T20:03:18.358Z,71.60
2019-03-21T20:05:47.759Z,73.00
2019-03-21T20:08:17.198Z,72.60
2019-03-21T20:10:46.645Z,74.10
2019-03-21T20:13:16.007Z,75.10
2019-03-21T20:15:45.431Z,75.30
2019-03-21T20:18:14.786Z,74.60
2019-03-21T20:20:44.210Z,75.20
2019-03-21T20:23:13.686Z,75.10
2019-03-21T20:25:43.489Z,76.00
2019-03-21T20:28:12.957Z,76.80
2019-03-21T20:30:42.447Z,77.30
2019-03-21T20:33:11.884Z,77.00
2019-03-21T20:35:41.543Z,75.90
2019-03-21T20:38:11.066Z,75.20
2019-03-21T20:40:40.900Z,76.00
2019-03-21T20:43:10.452Z,75.70
2019-03-21T20:45:41.408Z,76.00
2019-03-21T20:48:10.756Z,77.60
2019-03-21T20:50:40.241Z,77.60
2019-03-21T20:53:10.321Z,78.80
2019-03-21T20:55:39.731Z,78.50
2019-03-21T20:58:09.112Z,78.90
2019-03-21T21:00:38.537Z,79.30
2019-03-21T21:03:07.958Z,79.60
2019-03-21T21:05:37.494Z,80.00
2019-03-21T21:08:06.834Z,80.90
2019-03-21T21:10:36.294Z,81.80
2019-03-21T21:13:05.749Z,83.50
2019-03-21T21:15:35.082Z,82.90
2019-03-21T21:18:05.116Z,83.40
2019-03-21T21:20:34.536Z,83.50
2019-03-21T21:23:04.044Z,83.40
2019-03-21T21:25:33.450Z,83.50
2019-03-21T21:28:02.832Z,84.00
2019-03-21T21:30:35.060Z,85.30
2019-03-21T21:33:04.619Z,86.40
2019-03-21T21:35:34.081Z,86.60
2019-03-21T21:38:03.604Z,86.90
2019-03-21T21:40:34.612Z,87.20
2019-03-21T21:43:04.090Z,88.10
2019-03-21T21:45:33.678Z,88.40
2019-03-21T21:48:03.400Z,88.70
2019-03-21T21:50:32.831Z,89.80
2019-03-21T21:53:05.049Z,90.90
2019-03-21T21:55:34.556Z,91.00
2019-03-21T21:58:04.227Z,91.10
2019-03-21T22:00:37.127Z,91.00
2019-03-21T22:03:06.585Z,91.30
2019-03-21T22:05:38.243Z,91.50
2019-03-21T22:08:07.696Z,91.10
2019-03-21T22:10:37.270Z,91.10
2019-03-21T22:13:06.944Z,91.10
2019-03-21T22:15:36.477Z,91.20
2019-03-21T22:18:05.944Z,91.10
2019-03-21T22:20:35.854Z,91.60
2019-03-21T22:23:05.288Z,91.30
2019-03-21T22:25:34.856Z,91.30
2019-03-21T22:28:04.411Z,91.70
2019-03-21T22:30:33.959Z,91.60
2019-03-21T22:33:03.470Z,91.30
2019-03-21T22:35:32.791Z,91.20
2019-03-21T22:38:02.719Z,91.40
2019-03-21T22:40:32.528Z,91.10
2019-03-21T22:43:01.899Z,91.20
2019-03-21T22:45:31.423Z,91.20
2019-03-21T22:48:00.929Z,90.90
2019-03-21T22:50:30.243Z,90.90
2019-03-21T22:52:59.725Z,91.10
2019-03-21T22:55:29.151Z,91.00
2019-03-21T22:57:58.598Z,90.80
2019-03-21T23:00:34.527Z,90.90
2019-03-21T23:51:24.803Z,92.10
2019-03-21T23:53:54.190Z,92.00
2019-03-21T23:56:28.711Z,91.70
2019-03-21T23:58:57.944Z,92.20
